sensor_id;sensor_type;location;lat;lon;timestamp;P1;durP1;ratioP1;P2;durP2;ratioP2
68168;SDS011;54981;50.206;15.978;2022-07-21T00:02:20;11.88;;;6.97;;
68168;SDS011;54981;50.206;15.978;2022-07-21T00:04:45;13.13;;;7.38;;
68168;SDS011;54981;50.206;15.978;2022-07-21T00:07:10;12.75;;;7.35;;
68168;SDS011;54981;50.206;15.978;2022-07-21T00:09:36;10.07;;;6.85;;
68168;SDS011;54981;50.206;15.978;2022-07-21T00:12:02;11.07;;;7.07;;
68168;SDS011;54981;50.206;15.978;2022-07-21T00:14:28;8.55;;;7.35;;
68168;SDS011;54981;50.206;15.978;2022-07-21T00:16:54;13.50;;;7.40;;
68168;SDS011;54981;50.206;15.978;2022-07-21T00:19:19;10.07;;;7.63;;
68168;SDS011;54981;50.206;15.978;2022-07-21T00:21:45;11.18;;;7.70;;
68168;SDS011;54981;50.206;15.978;2022-07-21T00:24:10;11.15;;;7.28;;
68168;SDS011;54981;50.206;15.978;2022-07-21T00:26:35;9.38;;;7.18;;
68168;SDS011;54981;50.206;15.978;2022-07-21T00:29:01;10.95;;;7.20;;
68168;SDS011;54981;50.206;15.978;2022-07-21T00:31:26;9.63;;;7.22;;
68168;SDS011;54981;50.206;15.978;2022-07-21T00:33:52;12.13;;;6.85;;
68168;SDS011;54981;50.206;15.978;2022-07-21T00:36:18;9.60;;;6.80;;
68168;SDS011;54981;50.206;15.978;2022-07-21T00:38:44;9.48;;;6.80;;
68168;SDS011;54981;50.206;15.978;2022-07-21T00:41:09;8.90;;;7.18;;
68168;SDS011;54981;50.206;15.978;2022-07-21T00:43:34;10.07;;;7.30;;
68168;SDS011;54981;50.206;15.978;2022-07-21T00:45:59;11.80;;;7.53;;
68168;SDS011;54981;50.206;15.978;2022-07-21T00:48:25;10.05;;;6.78;;
68168;SDS011;54981;50.206;15.978;2022-07-21T00:50:50;9.02;;;7.82;;
68168;SDS011;54981;50.206;15.978;2022-07-21T00:53:16;7.85;;;7.05;;
68168;SDS011;54981;50.206;15.978;2022-07-21T00:55:42;15.23;;;7.63;;
68168;SDS011;54981;50.206;15.978;2022-07-21T00:58:08;11.10;;;7.85;;
68168;SDS011;54981;50.206;15.978;2022-07-21T01:00:34;13.35;;;7.47;;
68168;SDS011;54981;50.206;15.978;2022-07-21T01:03:00;12.13;;;7.97;;
68168;SDS011;54981;50.206;15.978;2022-07-21T01:05:26;13.98;;;7.70;;
68168;SDS011;54981;50.206;15.978;2022-07-21T01:07:52;11.50;;;7.35;;
68168;SDS011;54981;50.206;15.978;2022-07-21T01:10:20;8.98;;;7.78;;
68168;SDS011;54981;50.206;15.978;2022-07-21T01:12:46;10.10;;;7.78;;
68168;SDS011;54981;50.206;15.978;2022-07-21T01:15:13;12.23;;;7.20;;
68168;SDS011;54981;50.206;15.978;2022-07-21T01:17:40;12.98;;;7.45;;
68168;SDS011;54981;50.206;15.978;2022-07-21T01:20:06;13.55;;;7.43;;
68168;SDS011;54981;50.206;15.978;2022-07-21T01:22:35;11.20;;;7.22;;
68168;SDS011;54981;50.206;15.978;2022-07-21T01:25:02;12.48;;;8.20;;
68168;SDS011;54981;50.206;15.978;2022-07-21T01:27:28;9.73;;;7.90;;
68168;SDS011;54981;50.206;15.978;2022-07-21T01:29:54;12.40;;;7.95;;
68168;SDS011;54981;50.206;15.978;2022-07-21T01:32:20;8.68;;;7.40;;
68168;SDS011;54981;50.206;15.978;2022-07-21T01:34:46;11.65;;;8.48;;
68168;SDS011;54981;50.206;15.978;2022-07-21T01:37:12;9.77;;;8.75;;
68168;SDS011;54981;50.206;15.978;2022-07-21T01:39:38;12.30;;;7.55;;
68168;SDS011;54981;50.206;15.978;2022-07-21T01:44:48;9.43;;;7.17;;
68168;SDS011;54981;50.206;15.978;2022-07-21T01:47:14;9.25;;;7.97;;
68168;SDS011;54981;50.206;15.978;2022-07-21T01:49:40;12.30;;;8.32;;
68168;SDS011;54981;50.206;15.978;2022-07-21T01:52:05;9.32;;;7.97;;
68168;SDS011;54981;50.206;15.978;2022-07-21T01:54:31;11.52;;;8.43;;
68168;SDS011;54981;50.206;15.978;2022-07-21T01:56:56;11.68;;;8.23;;
68168;SDS011;54981;50.206;15.978;2022-07-21T01:59:22;12.60;;;7.88;;
68168;SDS011;54981;50.206;15.978;2022-07-21T02:01:47;9.82;;;7.47;;
68168;SDS011;54981;50.206;15.978;2022-07-21T02:04:12;10.73;;;8.65;;
68168;SDS011;54981;50.206;15.978;2022-07-21T02:06:38;11.10;;;8.30;;
68168;SDS011;54981;50.206;15.978;2022-07-21T02:09:03;9.30;;;8.30;;
68168;SDS011;54981;50.206;15.978;2022-07-21T02:11:29;14.20;;;7.78;;
68168;SDS011;54981;50.206;15.978;2022-07-21T02:13:54;12.45;;;8.07;;
68168;SDS011;54981;50.206;15.978;2022-07-21T02:16:20;10.88;;;8.07;;
68168;SDS011;54981;50.206;15.978;2022-07-21T02:18:45;11.27;;;8.10;;
68168;SDS011;54981;50.206;15.978;2022-07-21T02:21:10;12.57;;;8.70;;
68168;SDS011;54981;50.206;15.978;2022-07-21T02:23:36;12.25;;;8.48;;
68168;SDS011;54981;50.206;15.978;2022-07-21T02:26:02;11.57;;;8.77;;
68168;SDS011;54981;50.206;15.978;2022-07-21T02:28:28;11.90;;;8.85;;
68168;SDS011;54981;50.206;15.978;2022-07-21T02:30:54;11.73;;;8.63;;
68168;SDS011;54981;50.206;15.978;2022-07-21T02:33:20;10.20;;;8.35;;
68168;SDS011;54981;50.206;15.978;2022-07-21T02:35:46;13.20;;;8.68;;
68168;SDS011;54981;50.206;15.978;2022-07-21T02:38:11;9.93;;;7.93;;
68168;SDS011;54981;50.206;15.978;2022-07-21T02:40:37;14.70;;;8.00;;
68168;SDS011;54981;50.206;15.978;2022-07-21T02:43:03;20.02;;;7.95;;
68168;SDS011;54981;50.206;15.978;2022-07-21T02:45:31;10.02;;;7.88;;
68168;SDS011;54981;50.206;15.978;2022-07-21T02:48:07;11.90;;;8.30;;
68168;SDS011;54981;50.206;15.978;2022-07-21T02:50:35;11.35;;;7.57;;
68168;SDS011;54981;50.206;15.978;2022-07-21T02:53:04;11.02;;;7.97;;
68168;SDS011;54981;50.206;15.978;2022-07-21T02:55:31;11.13;;;8.02;;
68168;SDS011;54981;50.206;15.978;2022-07-21T03:00:41;10.88;;;8.02;;
68168;SDS011;54981;50.206;15.978;2022-07-21T03:03:08;12.38;;;8.50;;
68168;SDS011;54981;50.206;15.978;2022-07-21T03:05:34;13.93;;;7.70;;
68168;SDS011;54981;50.206;15.978;2022-07-21T03:08:00;9.88;;;7.18;;
68168;SDS011;54981;50.206;15.978;2022-07-21T03:10:25;9.77;;;6.90;;
68168;SDS011;54981;50.206;15.978;2022-07-21T03:12:51;8.77;;;7.13;;
68168;SDS011;54981;50.206;15.978;2022-07-21T03:15:16;11.85;;;7.45;;
68168;SDS011;54981;50.206;15.978;2022-07-21T03:17:41;14.07;;;7.53;;
68168;SDS011;54981;50.206;15.978;2022-07-21T03:20:07;11.82;;;7.95;;
68168;SDS011;54981;50.206;15.978;2022-07-21T03:22:33;11.68;;;7.78;;
68168;SDS011;54981;50.206;15.978;2022-07-21T03:24:58;14.73;;;8.75;;
68168;SDS011;54981;50.206;15.978;2022-07-21T03:27:24;10.98;;;8.15;;
68168;SDS011;54981;50.206;15.978;2022-07-21T03:29:50;11.02;;;9.20;;
68168;SDS011;54981;50.206;15.978;2022-07-21T03:32:15;8.93;;;7.97;;
68168;SDS011;54981;50.206;15.978;2022-07-21T03:34:41;10.15;;;7.97;;
68168;SDS011;54981;50.206;15.978;2022-07-21T03:37:06;9.93;;;8.02;;
68168;SDS011;54981;50.206;15.978;2022-07-21T03:39:31;13.93;;;8.30;;
68168;SDS011;54981;50.206;15.978;2022-07-21T03:41:57;8.98;;;7.47;;
68168;SDS011;54981;50.206;15.978;2022-07-21T03:44:22;10.55;;;8.20;;
68168;SDS011;54981;50.206;15.978;2022-07-21T03:46:47;11.77;;;8.65;;
68168;SDS011;54981;50.206;15.978;2022-07-21T03:49:13;13.45;;;8.65;;
68168;SDS011;54981;50.206;15.978;2022-07-21T03:51:38;17.42;;;7.90;;
68168;SDS011;54981;50.206;15.978;2022-07-21T03:54:04;11.27;;;8.23;;
68168;SDS011;54981;50.206;15.978;2022-07-21T03:56:29;11.25;;;8.02;;
68168;SDS011;54981;50.206;15.978;2022-07-21T03:58:54;11.98;;;8.23;;
68168;SDS011;54981;50.206;15.978;2022-07-21T04:01:20;11.00;;;8.90;;
68168;SDS011;54981;50.206;15.978;2022-07-21T04:03:45;9.68;;;7.88;;
68168;SDS011;54981;50.206;15.978;2022-07-21T04:06:11;10.73;;;8.80;;
68168;SDS011;54981;50.206;15.978;2022-07-21T04:08:36;11.15;;;8.75;;
68168;SDS011;54981;50.206;15.978;2022-07-21T04:11:02;10.95;;;8.73;;
68168;SDS011;54981;50.206;15.978;2022-07-21T04:13:28;11.80;;;8.40;;
68168;SDS011;54981;50.206;15.978;2022-07-21T04:15:53;13.35;;;9.00;;
68168;SDS011;54981;50.206;15.978;2022-07-21T04:18:19;11.38;;;8.52;;
68168;SDS011;54981;50.206;15.978;2022-07-21T04:20:44;13.32;;;8.95;;
68168;SDS011;54981;50.206;15.978;2022-07-21T04:23:10;9.52;;;8.05;;
68168;SDS011;54981;50.206;15.978;2022-07-21T04:25:35;12.27;;;8.75;;
68168;SDS011;54981;50.206;15.978;2022-07-21T04:28:03;12.63;;;8.55;;
68168;SDS011;54981;50.206;15.978;2022-07-21T04:30:28;10.10;;;7.80;;
68168;SDS011;54981;50.206;15.978;2022-07-21T04:32:53;13.27;;;8.98;;
68168;SDS011;54981;50.206;15.978;2022-07-21T04:35:19;11.32;;;8.77;;
68168;SDS011;54981;50.206;15.978;2022-07-21T04:37:45;12.52;;;9.57;;
68168;SDS011;54981;50.206;15.978;2022-07-21T04:40:10;12.15;;;8.32;;
68168;SDS011;54981;50.206;15.978;2022-07-21T04:42:37;15.02;;;9.25;;
68168;SDS011;54981;50.206;15.978;2022-07-21T04:45:03;12.75;;;8.30;;
68168;SDS011;54981;50.206;15.978;2022-07-21T04:47:30;12.35;;;9.18;;
68168;SDS011;54981;50.206;15.978;2022-07-21T04:49:55;13.88;;;8.50;;
68168;SDS011;54981;50.206;15.978;2022-07-21T04:52:21;11.93;;;9.57;;
68168;SDS011;54981;50.206;15.978;2022-07-21T04:54:46;11.93;;;9.35;;
68168;SDS011;54981;50.206;15.978;2022-07-21T04:57:11;16.05;;;8.63;;
68168;SDS011;54981;50.206;15.978;2022-07-21T04:59:37;10.95;;;8.27;;
68168;SDS011;54981;50.206;15.978;2022-07-21T05:02:03;13.02;;;7.72;;
68168;SDS011;54981;50.206;15.978;2022-07-21T05:04:29;10.15;;;7.70;;
68168;SDS011;54981;50.206;15.978;2022-07-21T05:06:55;13.77;;;8.15;;
68168;SDS011;54981;50.206;15.978;2022-07-21T05:09:20;14.55;;;8.02;;
68168;SDS011;54981;50.206;15.978;2022-07-21T05:11:46;10.48;;;7.82;;
68168;SDS011;54981;50.206;15.978;2022-07-21T05:14:11;11.35;;;8.07;;
68168;SDS011;54981;50.206;15.978;2022-07-21T05:16:37;9.85;;;7.72;;
68168;SDS011;54981;50.206;15.978;2022-07-21T05:19:02;13.25;;;8.23;;
68168;SDS011;54981;50.206;15.978;2022-07-21T05:21:28;14.60;;;8.30;;
68168;SDS011;54981;50.206;15.978;2022-07-21T05:23:53;12.07;;;8.32;;
68168;SDS011;54981;50.206;15.978;2022-07-21T05:26:18;14.27;;;8.00;;
68168;SDS011;54981;50.206;15.978;2022-07-21T05:28:44;9.90;;;8.25;;
68168;SDS011;54981;50.206;15.978;2022-07-21T05:31:10;9.63;;;7.65;;
68168;SDS011;54981;50.206;15.978;2022-07-21T05:33:35;13.57;;;8.38;;
68168;SDS011;54981;50.206;15.978;2022-07-21T05:36:01;13.23;;;7.85;;
68168;SDS011;54981;50.206;15.978;2022-07-21T05:38:28;12.48;;;7.70;;
68168;SDS011;54981;50.206;15.978;2022-07-21T05:40:53;13.73;;;6.93;;
68168;SDS011;54981;50.206;15.978;2022-07-21T05:43:19;10.32;;;7.07;;
68168;SDS011;54981;50.206;15.978;2022-07-21T05:45:44;11.07;;;7.07;;
68168;SDS011;54981;50.206;15.978;2022-07-21T05:48:09;10.65;;;6.78;;
68168;SDS011;54981;50.206;15.978;2022-07-21T05:50:35;11.38;;;7.28;;
68168;SDS011;54981;50.206;15.978;2022-07-21T05:53:00;11.15;;;6.32;;
68168;SDS011;54981;50.206;15.978;2022-07-21T05:55:25;17.70;;;7.68;;
68168;SDS011;54981;50.206;15.978;2022-07-21T05:57:51;12.35;;;6.75;;
68168;SDS011;54981;50.206;15.978;2022-07-21T06:00:16;10.38;;;6.50;;
68168;SDS011;54981;50.206;15.978;2022-07-21T06:02:43;13.23;;;6.65;;
68168;SDS011;54981;50.206;15.978;2022-07-21T06:05:11;11.52;;;7.13;;
68168;SDS011;54981;50.206;15.978;2022-07-21T06:07:37;12.27;;;8.02;;
68168;SDS011;54981;50.206;15.978;2022-07-21T06:10:03;14.30;;;7.90;;
68168;SDS011;54981;50.206;15.978;2022-07-21T06:12:29;12.77;;;7.43;;
68168;SDS011;54981;50.206;15.978;2022-07-21T06:14:54;12.60;;;7.15;;
68168;SDS011;54981;50.206;15.978;2022-07-21T06:17:20;11.75;;;7.50;;
68168;SDS011;54981;50.206;15.978;2022-07-21T06:19:46;12.57;;;7.13;;
68168;SDS011;54981;50.206;15.978;2022-07-21T06:22:11;9.80;;;7.53;;
68168;SDS011;54981;50.206;15.978;2022-07-21T06:24:36;9.25;;;6.70;;
68168;SDS011;54981;50.206;15.978;2022-07-21T06:27:02;12.90;;;7.30;;
68168;SDS011;54981;50.206;15.978;2022-07-21T06:29:28;11.20;;;6.55;;
68168;SDS011;54981;50.206;15.978;2022-07-21T06:31:54;13.85;;;7.00;;
68168;SDS011;54981;50.206;15.978;2022-07-21T06:34:19;11.13;;;6.60;;
68168;SDS011;54981;50.206;15.978;2022-07-21T06:36:44;11.52;;;6.85;;
68168;SDS011;54981;50.206;15.978;2022-07-21T06:39:10;14.15;;;6.82;;
68168;SDS011;54981;50.206;15.978;2022-07-21T06:41:38;10.30;;;6.93;;
68168;SDS011;54981;50.206;15.978;2022-07-21T06:44:05;9.85;;;6.75;;
68168;SDS011;54981;50.206;15.978;2022-07-21T06:46:31;12.23;;;6.10;;
68168;SDS011;54981;50.206;15.978;2022-07-21T06:48:57;9.98;;;5.88;;
68168;SDS011;54981;50.206;15.978;2022-07-21T06:51:22;10.98;;;5.97;;
68168;SDS011;54981;50.206;15.978;2022-07-21T06:53:48;11.23;;;5.75;;
68168;SDS011;54981;50.206;15.978;2022-07-21T06:56:13;9.27;;;5.50;;
68168;SDS011;54981;50.206;15.978;2022-07-21T06:58:38;18.75;;;6.35;;
68168;SDS011;54981;50.206;15.978;2022-07-21T07:01:04;10.55;;;5.68;;
68168;SDS011;54981;50.206;15.978;2022-07-21T07:03:29;10.15;;;5.47;;
68168;SDS011;54981;50.206;15.978;2022-07-21T07:05:54;10.90;;;5.20;;
68168;SDS011;54981;50.206;15.978;2022-07-21T07:08:20;14.50;;;5.93;;
68168;SDS011;54981;50.206;15.978;2022-07-21T07:10:45;8.90;;;5.82;;
68168;SDS011;54981;50.206;15.978;2022-07-21T07:13:11;9.63;;;5.55;;
68168;SDS011;54981;50.206;15.978;2022-07-21T07:15:38;11.32;;;6.15;;
68168;SDS011;54981;50.206;15.978;2022-07-21T07:18:04;13.93;;;5.43;;
68168;SDS011;54981;50.206;15.978;2022-07-21T07:20:29;15.00;;;5.63;;
68168;SDS011;54981;50.206;15.978;2022-07-21T07:22:55;11.88;;;5.25;;
68168;SDS011;54981;50.206;15.978;2022-07-21T07:25:20;7.90;;;5.27;;
68168;SDS011;54981;50.206;15.978;2022-07-21T07:27:46;10.30;;;5.28;;
68168;SDS011;54981;50.206;15.978;2022-07-21T07:30:13;13.80;;;6.38;;
68168;SDS011;54981;50.206;15.978;2022-07-21T07:32:39;11.35;;;5.68;;
68168;SDS011;54981;50.206;15.978;2022-07-21T07:35:05;10.57;;;5.85;;
68168;SDS011;54981;50.206;15.978;2022-07-21T07:37:33;10.98;;;5.50;;
68168;SDS011;54981;50.206;15.978;2022-07-21T07:40:00;11.23;;;5.63;;
68168;SDS011;54981;50.206;15.978;2022-07-21T07:42:25;12.90;;;5.93;;
68168;SDS011;54981;50.206;15.978;2022-07-21T07:44:50;8.90;;;4.63;;
68168;SDS011;54981;50.206;15.978;2022-07-21T07:47:16;8.25;;;5.05;;
68168;SDS011;54981;50.206;15.978;2022-07-21T07:49:41;7.07;;;4.55;;
68168;SDS011;54981;50.206;15.978;2022-07-21T07:52:06;9.18;;;5.55;;
68168;SDS011;54981;50.206;15.978;2022-07-21T07:54:32;7.82;;;4.43;;
68168;SDS011;54981;50.206;15.978;2022-07-21T07:56:57;10.63;;;5.20;;
68168;SDS011;54981;50.206;15.978;2022-07-21T07:59:23;12.00;;;4.80;;
68168;SDS011;54981;50.206;15.978;2022-07-21T08:01:48;6.73;;;4.70;;
68168;SDS011;54981;50.206;15.978;2022-07-21T08:04:13;11.60;;;4.50;;
68168;SDS011;54981;50.206;15.978;2022-07-21T08:06:40;14.13;;;4.68;;
68168;SDS011;54981;50.206;15.978;2022-07-21T08:09:05;11.63;;;5.28;;
68168;SDS011;54981;50.206;15.978;2022-07-21T08:11:31;6.82;;;4.10;;
68168;SDS011;54981;50.206;15.978;2022-07-21T08:13:57;5.95;;;3.88;;
68168;SDS011;54981;50.206;15.978;2022-07-21T08:16:22;5.90;;;4.20;;
68168;SDS011;54981;50.206;15.978;2022-07-21T08:18:47;8.40;;;4.10;;
68168;SDS011;54981;50.206;15.978;2022-07-21T08:21:13;8.93;;;4.13;;
68168;SDS011;54981;50.206;15.978;2022-07-21T08:23:38;8.82;;;3.92;;
68168;SDS011;54981;50.206;15.978;2022-07-21T08:26:04;8.23;;;4.38;;
68168;SDS011;54981;50.206;15.978;2022-07-21T08:28:29;6.68;;;4.07;;
68168;SDS011;54981;50.206;15.978;2022-07-21T08:30:55;6.43;;;4.15;;
68168;SDS011;54981;50.206;15.978;2022-07-21T08:33:20;9.30;;;4.43;;
68168;SDS011;54981;50.206;15.978;2022-07-21T08:35:46;6.95;;;4.00;;
68168;SDS011;54981;50.206;15.978;2022-07-21T08:38:11;5.67;;;3.20;;
68168;SDS011;54981;50.206;15.978;2022-07-21T08:40:39;8.40;;;3.28;;
68168;SDS011;54981;50.206;15.978;2022-07-21T08:43:09;7.38;;;3.40;;
68168;SDS011;54981;50.206;15.978;2022-07-21T08:45:36;5.88;;;3.35;;
68168;SDS011;54981;50.206;15.978;2022-07-21T08:48:02;8.90;;;3.55;;
68168;SDS011;54981;50.206;15.978;2022-07-21T08:50:29;6.22;;;2.90;;
68168;SDS011;54981;50.206;15.978;2022-07-21T08:52:59;4.85;;;3.10;;
68168;SDS011;54981;50.206;15.978;2022-07-21T08:55:27;7.63;;;3.10;;
68168;SDS011;54981;50.206;15.978;2022-07-21T08:57:57;4.40;;;2.85;;
68168;SDS011;54981;50.206;15.978;2022-07-21T09:00:22;5.75;;;3.05;;
68168;SDS011;54981;50.206;15.978;2022-07-21T09:02:47;6.13;;;2.90;;
68168;SDS011;54981;50.206;15.978;2022-07-21T09:05:13;10.55;;;3.25;;
68168;SDS011;54981;50.206;15.978;2022-07-21T09:10:14;5.72;;;2.72;;
68168;SDS011;54981;50.206;15.978;2022-07-21T09:12:50;3.80;;;2.47;;
68168;SDS011;54981;50.206;15.978;2022-07-21T09:15:18;4.45;;;2.83;;
68168;SDS011;54981;50.206;15.978;2022-07-21T09:17:45;5.95;;;2.50;;
68168;SDS011;54981;50.206;15.978;2022-07-21T09:20:24;9.68;;;2.55;;
68168;SDS011;54981;50.206;15.978;2022-07-21T09:25:38;6.18;;;2.67;;
68168;SDS011;54981;50.206;15.978;2022-07-21T09:30:46;6.70;;;2.60;;
68168;SDS011;54981;50.206;15.978;2022-07-21T09:38:22;3.78;;;2.03;;
68168;SDS011;54981;50.206;15.978;2022-07-21T09:40:48;8.75;;;2.92;;
68168;SDS011;54981;50.206;15.978;2022-07-21T09:43:33;4.03;;;2.88;;
68168;SDS011;54981;50.206;15.978;2022-07-21T09:46:08;10.38;;;2.50;;
68168;SDS011;54981;50.206;15.978;2022-07-21T09:48:36;5.32;;;2.30;;
68168;SDS011;54981;50.206;15.978;2022-07-21T09:54:12;4.28;;;2.40;;
68168;SDS011;54981;50.206;15.978;2022-07-21T09:56:38;8.65;;;2.78;;
68168;SDS011;54981;50.206;15.978;2022-07-21T09:59:09;6.80;;;2.50;;
68168;SDS011;54981;50.206;15.978;2022-07-21T10:01:36;5.82;;;2.42;;
68168;SDS011;54981;50.206;15.978;2022-07-21T10:04:03;4.75;;;2.60;;
68168;SDS011;54981;50.206;15.978;2022-07-21T10:06:30;5.90;;;2.38;;
68168;SDS011;54981;50.206;15.978;2022-07-21T10:08:57;4.70;;;2.20;;
68168;SDS011;54981;50.206;15.978;2022-07-21T10:11:24;6.43;;;2.30;;
68168;SDS011;54981;50.206;15.978;2022-07-21T10:13:51;6.32;;;2.45;;
68168;SDS011;54981;50.206;15.978;2022-07-21T10:16:16;7.70;;;2.10;;
68168;SDS011;54981;50.206;15.978;2022-07-21T10:21:36;6.03;;;2.58;;
68168;SDS011;54981;50.206;15.978;2022-07-21T10:24:09;5.28;;;2.55;;
68168;SDS011;54981;50.206;15.978;2022-07-21T10:26:35;3.20;;;1.95;;
68168;SDS011;54981;50.206;15.978;2022-07-21T10:29:01;4.43;;;2.13;;
68168;SDS011;54981;50.206;15.978;2022-07-21T10:31:27;6.32;;;2.47;;
68168;SDS011;54981;50.206;15.978;2022-07-21T10:33:54;9.02;;;2.47;;
68168;SDS011;54981;50.206;15.978;2022-07-21T10:41:37;7.85;;;2.72;;
68168;SDS011;54981;50.206;15.978;2022-07-21T10:44:33;7.93;;;2.30;;
68168;SDS011;54981;50.206;15.978;2022-07-21T10:57:36;5.03;;;2.40;;
68168;SDS011;54981;50.206;15.978;2022-07-21T11:02:56;6.32;;;2.80;;
68168;SDS011;54981;50.206;15.978;2022-07-21T11:05:24;5.57;;;2.33;;
68168;SDS011;54981;50.206;15.978;2022-07-21T11:10:49;4.72;;;2.13;;
68168;SDS011;54981;50.206;15.978;2022-07-21T11:13:17;5.90;;;2.63;;
68168;SDS011;54981;50.206;15.978;2022-07-21T11:15:53;7.00;;;2.25;;
68168;SDS011;54981;50.206;15.978;2022-07-21T11:18:19;8.25;;;2.40;;
68168;SDS011;54981;50.206;15.978;2022-07-21T11:21:00;6.85;;;2.33;;
68168;SDS011;54981;50.206;15.978;2022-07-21T11:23:45;6.43;;;2.50;;
68168;SDS011;54981;50.206;15.978;2022-07-21T11:26:13;5.70;;;2.15;;
68168;SDS011;54981;50.206;15.978;2022-07-21T11:28:40;6.10;;;2.30;;
68168;SDS011;54981;50.206;15.978;2022-07-21T11:33:32;6.07;;;2.22;;
68168;SDS011;54981;50.206;15.978;2022-07-21T11:35:58;4.80;;;2.30;;
68168;SDS011;54981;50.206;15.978;2022-07-21T11:38:23;6.57;;;2.17;;
68168;SDS011;54981;50.206;15.978;2022-07-21T11:40:49;5.00;;;2.40;;
68168;SDS011;54981;50.206;15.978;2022-07-21T11:43:14;5.45;;;2.03;;
68168;SDS011;54981;50.206;15.978;2022-07-21T11:45:50;5.35;;;1.90;;
68168;SDS011;54981;50.206;15.978;2022-07-21T11:48:29;3.53;;;2.00;;
68168;SDS011;54981;50.206;15.978;2022-07-21T11:51:02;4.60;;;2.15;;
68168;SDS011;54981;50.206;15.978;2022-07-21T11:53:28;4.68;;;2.28;;
68168;SDS011;54981;50.206;15.978;2022-07-21T11:55:54;3.72;;;2.17;;
68168;SDS011;54981;50.206;15.978;2022-07-21T11:58:20;7.80;;;2.50;;
68168;SDS011;54981;50.206;15.978;2022-07-21T12:00:46;4.50;;;2.35;;
68168;SDS011;54981;50.206;15.978;2022-07-21T12:03:12;3.83;;;2.03;;
68168;SDS011;54981;50.206;15.978;2022-07-21T12:05:38;4.85;;;1.92;;
68168;SDS011;54981;50.206;15.978;2022-07-21T12:08:05;4.32;;;2.10;;
68168;SDS011;54981;50.206;15.978;2022-07-21T12:10:31;5.68;;;2.10;;
68168;SDS011;54981;50.206;15.978;2022-07-21T12:13:01;5.57;;;2.47;;
68168;SDS011;54981;50.206;15.978;2022-07-21T12:15:29;3.78;;;2.40;;
68168;SDS011;54981;50.206;15.978;2022-07-21T12:18:00;5.60;;;2.40;;
68168;SDS011;54981;50.206;15.978;2022-07-21T12:20:39;5.28;;;2.30;;
68168;SDS011;54981;50.206;15.978;2022-07-21T12:23:24;6.18;;;2.40;;
68168;SDS011;54981;50.206;15.978;2022-07-21T12:25:51;5.32;;;2.38;;
68168;SDS011;54981;50.206;15.978;2022-07-21T12:28:17;5.32;;;2.25;;
68168;SDS011;54981;50.206;15.978;2022-07-21T12:33:19;6.05;;;2.20;;
68168;SDS011;54981;50.206;15.978;2022-07-21T12:35:59;10.52;;;2.55;;
68168;SDS011;54981;50.206;15.978;2022-07-21T12:38:38;4.80;;;2.30;;
68168;SDS011;54981;50.206;15.978;2022-07-21T12:41:12;2.97;;;2.10;;
68168;SDS011;54981;50.206;15.978;2022-07-21T12:43:40;5.38;;;2.45;;
68168;SDS011;54981;50.206;15.978;2022-07-21T12:46:09;8.82;;;2.20;;
68168;SDS011;54981;50.206;15.978;2022-07-21T12:48:43;5.88;;;2.25;;
68168;SDS011;54981;50.206;15.978;2022-07-21T12:51:11;5.35;;;2.53;;
68168;SDS011;54981;50.206;15.978;2022-07-21T12:53:43;5.85;;;2.22;;
68168;SDS011;54981;50.206;15.978;2022-07-21T12:56:11;5.88;;;2.50;;
68168;SDS011;54981;50.206;15.978;2022-07-21T12:58:39;4.38;;;2.90;;
68168;SDS011;54981;50.206;15.978;2022-07-21T13:01:05;5.70;;;2.60;;
68168;SDS011;54981;50.206;15.978;2022-07-21T13:03:31;5.05;;;2.60;;
68168;SDS011;54981;50.206;15.978;2022-07-21T13:05:58;5.43;;;2.78;;
68168;SDS011;54981;50.206;15.978;2022-07-21T13:08:24;4.18;;;2.58;;
68168;SDS011;54981;50.206;15.978;2022-07-21T13:10:50;6.07;;;2.63;;
68168;SDS011;54981;50.206;15.978;2022-07-21T13:13:15;8.00;;;2.60;;
68168;SDS011;54981;50.206;15.978;2022-07-21T13:15:41;9.18;;;3.00;;
68168;SDS011;54981;50.206;15.978;2022-07-21T13:18:06;7.45;;;2.75;;
68168;SDS011;54981;50.206;15.978;2022-07-21T13:20:32;9.90;;;3.38;;
68168;SDS011;54981;50.206;15.978;2022-07-21T13:22:57;5.38;;;2.50;;
68168;SDS011;54981;50.206;15.978;2022-07-21T13:25:23;5.85;;;2.92;;
68168;SDS011;54981;50.206;15.978;2022-07-21T13:27:48;4.07;;;2.58;;
68168;SDS011;54981;50.206;15.978;2022-07-21T13:30:14;10.75;;;3.10;;
68168;SDS011;54981;50.206;15.978;2022-07-21T13:32:40;7.82;;;3.17;;
68168;SDS011;54981;50.206;15.978;2022-07-21T13:35:06;4.82;;;2.55;;
68168;SDS011;54981;50.206;15.978;2022-07-21T13:37:32;7.45;;;2.47;;
68168;SDS011;54981;50.206;15.978;2022-07-21T13:39:57;7.28;;;2.75;;
68168;SDS011;54981;50.206;15.978;2022-07-21T13:42:22;7.15;;;2.80;;
68168;SDS011;54981;50.206;15.978;2022-07-21T13:44:48;7.10;;;2.78;;
68168;SDS011;54981;50.206;15.978;2022-07-21T13:47:13;6.78;;;2.80;;
68168;SDS011;54981;50.206;15.978;2022-07-21T13:49:39;8.48;;;2.65;;
68168;SDS011;54981;50.206;15.978;2022-07-21T13:52:04;5.95;;;2.88;;
68168;SDS011;54981;50.206;15.978;2022-07-21T13:54:29;7.47;;;2.92;;
68168;SDS011;54981;50.206;15.978;2022-07-21T13:56:55;6.05;;;2.80;;
68168;SDS011;54981;50.206;15.978;2022-07-21T13:59:22;7.05;;;3.20;;
68168;SDS011;54981;50.206;15.978;2022-07-21T14:01:47;9.48;;;3.17;;
68168;SDS011;54981;50.206;15.978;2022-07-21T14:04:13;10.13;;;3.20;;
68168;SDS011;54981;50.206;15.978;2022-07-21T14:06:38;5.82;;;3.40;;
68168;SDS011;54981;50.206;15.978;2022-07-21T14:09:04;7.75;;;3.40;;
68168;SDS011;54981;50.206;15.978;2022-07-21T14:11:29;6.35;;;3.35;;
68168;SDS011;54981;50.206;15.978;2022-07-21T14:13:55;7.07;;;3.40;;
68168;SDS011;54981;50.206;15.978;2022-07-21T14:16:21;7.03;;;3.10;;
68168;SDS011;54981;50.206;15.978;2022-07-21T14:18:47;6.20;;;3.00;;
68168;SDS011;54981;50.206;15.978;2022-07-21T14:21:13;7.25;;;3.53;;
68168;SDS011;54981;50.206;15.978;2022-07-21T14:23:39;7.10;;;3.58;;
68168;SDS011;54981;50.206;15.978;2022-07-21T14:26:04;16.27;;;4.18;;
68168;SDS011;54981;50.206;15.978;2022-07-21T14:28:30;5.15;;;3.00;;
68168;SDS011;54981;50.206;15.978;2022-07-21T14:30:56;7.45;;;3.45;;
68168;SDS011;54981;50.206;15.978;2022-07-21T14:33:21;8.65;;;3.50;;
68168;SDS011;54981;50.206;15.978;2022-07-21T14:35:46;12.90;;;3.70;;
68168;SDS011;54981;50.206;15.978;2022-07-21T14:38:12;9.43;;;3.22;;
68168;SDS011;54981;50.206;15.978;2022-07-21T14:40:37;8.05;;;3.55;;
68168;SDS011;54981;50.206;15.978;2022-07-21T14:43:04;7.97;;;3.53;;
68168;SDS011;54981;50.206;15.978;2022-07-21T14:45:29;6.10;;;3.30;;
68168;SDS011;54981;50.206;15.978;2022-07-21T14:47:55;6.95;;;3.72;;
68168;SDS011;54981;50.206;15.978;2022-07-21T14:50:22;7.22;;;3.05;;
68168;SDS011;54981;50.206;15.978;2022-07-21T14:52:49;8.85;;;3.30;;
68168;SDS011;54981;50.206;15.978;2022-07-21T14:55:15;8.93;;;3.40;;
68168;SDS011;54981;50.206;15.978;2022-07-21T14:57:40;6.85;;;2.90;;
68168;SDS011;54981;50.206;15.978;2022-07-21T15:00:06;7.50;;;3.22;;
68168;SDS011;54981;50.206;15.978;2022-07-21T15:02:53;7.28;;;3.45;;
68168;SDS011;54981;50.206;15.978;2022-07-21T15:05:18;5.63;;;3.00;;
68168;SDS011;54981;50.206;15.978;2022-07-21T15:07:44;6.00;;;3.17;;
68168;SDS011;54981;50.206;15.978;2022-07-21T15:10:09;9.23;;;3.08;;
68168;SDS011;54981;50.206;15.978;2022-07-21T15:12:35;5.88;;;3.47;;
68168;SDS011;54981;50.206;15.978;2022-07-21T15:15:00;4.78;;;2.83;;
68168;SDS011;54981;50.206;15.978;2022-07-21T15:17:26;9.25;;;2.92;;